sensor_id;sensor_type;location;lat;lon;timestamp;temperature;humidity
21559;DHT22;10940;48.890;8.240;2023-05-10T00:00:32;14.10;99.90
21559;DHT22;10940;48.890;8.240;2023-05-10T00:02:58;14.10;99.90
21559;DHT22;10940;48.890;8.240;2023-05-10T00:05:24;14.10;99.90
21559;DHT22;10940;48.890;8.240;2023-05-10T00:07:49;14.10;99.90
21559;DHT22;10940;48.890;8.240;2023-05-10T00:10:15;14.10;99.90
21559;DHT22;10940;48.890;8.240;2023-05-10T00:12:41;14.10;99.90
21559;DHT22;10940;48.890;8.240;2023-05-10T00:15:07;14.10;99.90
21559;DHT22;10940;48.890;8.240;2023-05-10T00:17:33;14.10;99.90
21559;DHT22;10940;48.890;8.240;2023-05-10T00:19:58;14.10;99.90
21559;DHT22;10940;48.890;8.240;2023-05-10T00:22:24;14.10;99.90
21559;DHT22;10940;48.890;8.240;2023-05-10T00:24:49;14.10;99.90
21559;DHT22;10940;48.890;8.240;2023-05-10T00:27:15;14.10;99.90
21559;DHT22;10940;48.890;8.240;2023-05-10T00:29:40;14.10;99.90
21559;DHT22;10940;48.890;8.240;2023-05-10T00:32:06;14.10;99.90
21559;DHT22;10940;48.890;8.240;2023-05-10T00:34:32;14.10;99.90
21559;DHT22;10940;48.890;8.240;2023-05-10T00:36:57;14.10;99.90
21559;DHT22;10940;48.890;8.240;2023-05-10T00:39:23;14.10;99.90
21559;DHT22;10940;48.890;8.240;2023-05-10T00:41:48;14.10;99.90
21559;DHT22;10940;48.890;8.240;2023-05-10T00:44:14;14.10;99.90
21559;DHT22;10940;48.890;8.240;2023-05-10T00:46:40;14.10;99.90
21559;DHT22;10940;48.890;8.240;2023-05-10T00:49:06;14.00;99.90
21559;DHT22;10940;48.890;8.240;2023-05-10T00:51:32;14.10;99.90
21559;DHT22;10940;48.890;8.240;2023-05-10T00:53:58;14.10;99.90
21559;DHT22;10940;48.890;8.240;2023-05-10T00:56:24;14.10;99.90
21559;DHT22;10940;48.890;8.240;2023-05-10T00:58:50;14.10;99.90
21559;DHT22;10940;48.890;8.240;2023-05-10T01:01:16;14.10;99.90
21559;DHT22;10940;48.890;8.240;2023-05-10T01:03:42;14.10;99.90
21559;DHT22;10940;48.890;8.240;2023-05-10T01:06:08;14.10;99.90
21559;DHT22;10940;48.890;8.240;2023-05-10T01:08:35;14.10;99.90
21559;DHT22;10940;48.890;8.240;2023-05-10T01:11:01;14.10;99.90
21559;DHT22;10940;48.890;8.240;2023-05-10T01:13:33;14.10;99.90
21559;DHT22;10940;48.890;8.240;2023-05-10T01:16:00;14.10;99.90
21559;DHT22;10940;48.890;8.240;2023-05-10T01:18:29;14.10;99.90
21559;DHT22;10940;48.890;8.240;2023-05-10T01:21:27;14.10;99.90
21559;DHT22;10940;48.890;8.240;2023-05-10T01:24:19;14.10;99.90
21559;DHT22;10940;48.890;8.240;2023-05-10T01:27:01;14.00;99.90
21559;DHT22;10940;48.890;8.240;2023-05-10T01:33:10;14.00;99.90
21559;DHT22;10940;48.890;8.240;2023-05-10T01:35:19;14.00;99.90
21559;DHT22;10940;48.890;8.240;2023-05-10T01:37:56;14.00;99.90
21559;DHT22;10940;48.890;8.240;2023-05-10T01:40:37;14.00;99.90
21559;DHT22;10940;48.890;8.240;2023-05-10T01:43:11;14.00;99.90
21559;DHT22;10940;48.890;8.240;2023-05-10T01:45:54;14.00;99.90
21559;DHT22;10940;48.890;8.240;2023-05-10T01:48:25;13.90;99.90
21559;DHT22;10940;48.890;8.240;2023-05-10T01:50:53;14.00;99.90
21559;DHT22;10940;48.890;8.240;2023-05-10T01:53:20;14.00;99.90
21559;DHT22;10940;48.890;8.240;2023-05-10T01:55:49;14.00;99.90
21559;DHT22;10940;48.890;8.240;2023-05-10T01:58:36;14.00;99.90
21559;DHT22;10940;48.890;8.240;2023-05-10T02:01:04;14.00;99.90
21559;DHT22;10940;48.890;8.240;2023-05-10T02:03:31;14.00;99.90
21559;DHT22;10940;48.890;8.240;2023-05-10T02:05:57;14.00;99.90
21559;DHT22;10940;48.890;8.240;2023-05-10T02:08:24;14.00;99.90
21559;DHT22;10940;48.890;8.240;2023-05-10T02:10:52;14.00;99.90
21559;DHT22;10940;48.890;8.240;2023-05-10T02:13:19;14.00;99.90
21559;DHT22;10940;48.890;8.240;2023-05-10T02:15:48;14.00;99.90
21559;DHT22;10940;48.890;8.240;2023-05-10T02:18:14;14.00;99.90
21559;DHT22;10940;48.890;8.240;2023-05-10T02:20:42;14.00;99.90
21559;DHT22;10940;48.890;8.240;2023-05-10T02:23:08;14.00;99.90
21559;DHT22;10940;48.890;8.240;2023-05-10T02:25:35;13.90;99.90
21559;DHT22;10940;48.890;8.240;2023-05-10T02:28:03;13.90;99.90
21559;DHT22;10940;48.890;8.240;2023-05-10T02:30:31;13.90;99.90
21559;DHT22;10940;48.890;8.240;2023-05-10T02:32:57;13.90;99.90
21559;DHT22;10940;48.890;8.240;2023-05-10T02:35:25;13.80;99.90
21559;DHT22;10940;48.890;8.240;2023-05-10T02:37:52;13.90;99.90
21559;DHT22;10940;48.890;8.240;2023-05-10T02:40:19;13.90;99.90
21559;DHT22;10940;48.890;8.240;2023-05-10T02:42:48;13.90;99.90
21559;DHT22;10940;48.890;8.240;2023-05-10T02:45:19;13.90;99.90
21559;DHT22;10940;48.890;8.240;2023-05-10T02:47:46;13.90;99.90
21559;DHT22;10940;48.890;8.240;2023-05-10T02:50:11;13.90;99.90
21559;DHT22;10940;48.890;8.240;2023-05-10T02:52:49;13.80;99.90
21559;DHT22;10940;48.890;8.240;2023-05-10T02:55:19;13.80;99.90
21559;DHT22;10940;48.890;8.240;2023-05-10T02:57:51;13.80;99.90
21559;DHT22;10940;48.890;8.240;2023-05-10T03:00:17;13.70;99.90
21559;DHT22;10940;48.890;8.240;2023-05-10T03:02:43;13.70;99.90
21559;DHT22;10940;48.890;8.240;2023-05-10T03:05:09;13.70;99.90
21559;DHT22;10940;48.890;8.240;2023-05-10T03:07:34;13.70;99.90
21559;DHT22;10940;48.890;8.240;2023-05-10T03:10:01;13.60;99.90
21559;DHT22;10940;48.890;8.240;2023-05-10T03:20:34;13.70;99.90
21559;DHT22;10940;48.890;8.240;2023-05-10T03:23:13;13.70;99.90
21559;DHT22;10940;48.890;8.240;2023-05-10T03:25:45;13.60;99.90
21559;DHT22;10940;48.890;8.240;2023-05-10T03:28:14;13.70;99.90
21559;DHT22;10940;48.890;8.240;2023-05-10T03:30:42;13.60;99.90
21559;DHT22;10940;48.890;8.240;2023-05-10T03:33:08;13.70;99.90
21559;DHT22;10940;48.890;8.240;2023-05-10T03:35:34;13.70;99.90
21559;DHT22;10940;48.890;8.240;2023-05-10T03:38:00;13.70;99.90
21559;DHT22;10940;48.890;8.240;2023-05-10T03:40:26;13.70;99.90
21559;DHT22;10940;48.890;8.240;2023-05-10T03:42:54;13.60;99.90
21559;DHT22;10940;48.890;8.240;2023-05-10T03:45:20;13.70;99.90
21559;DHT22;10940;48.890;8.240;2023-05-10T03:47:45;13.60;99.90
21559;DHT22;10940;48.890;8.240;2023-05-10T03:50:11;13.60;99.90
21559;DHT22;10940;48.890;8.240;2023-05-10T03:52:37;13.80;99.90
21559;DHT22;10940;48.890;8.240;2023-05-10T03:55:05;13.60;99.90
21559;DHT22;10940;48.890;8.240;2023-05-10T03:57:30;13.60;99.90
21559;DHT22;10940;48.890;8.240;2023-05-10T03:59:56;13.60;99.90
21559;DHT22;10940;48.890;8.240;2023-05-10T04:02:21;13.60;99.90
21559;DHT22;10940;48.890;8.240;2023-05-10T04:04:47;13.60;99.90
21559;DHT22;10940;48.890;8.240;2023-05-10T04:07:13;13.70;99.90
21559;DHT22;10940;48.890;8.240;2023-05-10T04:09:39;13.70;99.90
21559;DHT22;10940;48.890;8.240;2023-05-10T04:12:05;13.70;99.90
21559;DHT22;10940;48.890;8.240;2023-05-10T04:14:31;13.70;99.90
21559;DHT22;10940;48.890;8.240;2023-05-10T04:16:57;13.70;99.90
21559;DHT22;10940;48.890;8.240;2023-05-10T04:19:22;13.70;99.90
21559;DHT22;10940;48.890;8.240;2023-05-10T04:21:48;13.70;99.90
21559;DHT22;10940;48.890;8.240;2023-05-10T04:24:13;13.70;99.90
21559;DHT22;10940;48.890;8.240;2023-05-10T04:26:39;13.60;99.90
21559;DHT22;10940;48.890;8.240;2023-05-10T04:29:05;13.70;99.90
21559;DHT22;10940;48.890;8.240;2023-05-10T04:31:30;13.70;99.90
21559;DHT22;10940;48.890;8.240;2023-05-10T04:33:56;13.60;99.90
21559;DHT22;10940;48.890;8.240;2023-05-10T04:36:22;13.70;99.90
21559;DHT22;10940;48.890;8.240;2023-05-10T04:38:47;13.60;99.90
21559;DHT22;10940;48.890;8.240;2023-05-10T04:41:13;13.70;99.90
21559;DHT22;10940;48.890;8.240;2023-05-10T04:43:38;13.70;99.90
21559;DHT22;10940;48.890;8.240;2023-05-10T04:46:05;13.80;99.90
21559;DHT22;10940;48.890;8.240;2023-05-10T04:48:30;13.80;99.90
21559;DHT22;10940;48.890;8.240;2023-05-10T04:50:56;13.80;99.90
21559;DHT22;10940;48.890;8.240;2023-05-10T04:53:22;13.80;99.90
21559;DHT22;10940;48.890;8.240;2023-05-10T04:55:47;13.90;99.90
21559;DHT22;10940;48.890;8.240;2023-05-10T04:58:13;13.90;99.90
21559;DHT22;10940;48.890;8.240;2023-05-10T05:00:39;13.90;99.90
21559;DHT22;10940;48.890;8.240;2023-05-10T05:03:04;13.90;99.90
21559;DHT22;10940;48.890;8.240;2023-05-10T05:05:30;13.90;99.90
21559;DHT22;10940;48.890;8.240;2023-05-10T05:07:56;13.90;99.90
21559;DHT22;10940;48.890;8.240;2023-05-10T05:10:22;13.90;99.90
21559;DHT22;10940;48.890;8.240;2023-05-10T05:12:47;13.90;99.90
21559;DHT22;10940;48.890;8.240;2023-05-10T05:15:13;14.00;99.90
21559;DHT22;10940;48.890;8.240;2023-05-10T05:17:38;14.00;99.90
21559;DHT22;10940;48.890;8.240;2023-05-10T05:20:04;14.00;99.90
21559;DHT22;10940;48.890;8.240;2023-05-10T05:22:30;14.00;99.90
21559;DHT22;10940;48.890;8.240;2023-05-10T05:24:57;13.90;99.90
21559;DHT22;10940;48.890;8.240;2023-05-10T05:27:24;13.90;99.90
21559;DHT22;10940;48.890;8.240;2023-05-10T05:29:54;13.90;99.90
21559;DHT22;10940;48.890;8.240;2023-05-10T05:32:20;13.90;99.90
21559;DHT22;10940;48.890;8.240;2023-05-10T05:34:46;13.90;99.90
21559;DHT22;10940;48.890;8.240;2023-05-10T05:37:15;14.00;99.90
21559;DHT22;10940;48.890;8.240;2023-05-10T05:39:41;14.00;99.90
21559;DHT22;10940;48.890;8.240;2023-05-10T05:42:08;14.00;99.90
21559;DHT22;10940;48.890;8.240;2023-05-10T05:44:33;14.10;99.90
21559;DHT22;10940;48.890;8.240;2023-05-10T05:46:59;14.10;99.90
21559;DHT22;10940;48.890;8.240;2023-05-10T05:49:25;14.10;99.90
21559;DHT22;10940;48.890;8.240;2023-05-10T05:51:50;14.20;99.90
21559;DHT22;10940;48.890;8.240;2023-05-10T05:54:16;14.30;99.90
21559;DHT22;10940;48.890;8.240;2023-05-10T05:56:41;14.30;99.90
21559;DHT22;10940;48.890;8.240;2023-05-10T05:59:07;14.40;99.90
21559;DHT22;10940;48.890;8.240;2023-05-10T06:01:33;14.40;99.90
21559;DHT22;10940;48.890;8.240;2023-05-10T06:03:58;14.40;99.90
21559;DHT22;10940;48.890;8.240;2023-05-10T06:06:24;14.50;99.90
21559;DHT22;10940;48.890;8.240;2023-05-10T06:08:50;14.50;99.90
21559;DHT22;10940;48.890;8.240;2023-05-10T06:11:15;14.50;99.90
21559;DHT22;10940;48.890;8.240;2023-05-10T06:13:41;14.60;99.90
21559;DHT22;10940;48.890;8.240;2023-05-10T06:16:07;14.50;99.90
21559;DHT22;10940;48.890;8.240;2023-05-10T06:18:33;14.60;99.90
21559;DHT22;10940;48.890;8.240;2023-05-10T06:20:59;14.60;99.90
21559;DHT22;10940;48.890;8.240;2023-05-10T06:23:24;14.60;99.90
21559;DHT22;10940;48.890;8.240;2023-05-10T06:25:51;14.60;99.90
21559;DHT22;10940;48.890;8.240;2023-05-10T06:28:16;14.70;99.90
21559;DHT22;10940;48.890;8.240;2023-05-10T06:30:42;14.70;99.90
21559;DHT22;10940;48.890;8.240;2023-05-10T06:33:08;14.70;99.90
21559;DHT22;10940;48.890;8.240;2023-05-10T06:35:34;14.70;99.90
21559;DHT22;10940;48.890;8.240;2023-05-10T06:37:59;14.70;99.90
21559;DHT22;10940;48.890;8.240;2023-05-10T06:40:25;14.80;99.90
21559;DHT22;10940;48.890;8.240;2023-05-10T06:42:51;14.80;99.90
21559;DHT22;10940;48.890;8.240;2023-05-10T06:45:17;14.90;99.90
21559;DHT22;10940;48.890;8.240;2023-05-10T06:47:43;14.80;99.90
21559;DHT22;10940;48.890;8.240;2023-05-10T06:50:09;14.80;99.90
21559;DHT22;10940;48.890;8.240;2023-05-10T06:52:36;14.90;99.90
21559;DHT22;10940;48.890;8.240;2023-05-10T06:55:05;14.90;99.90
21559;DHT22;10940;48.890;8.240;2023-05-10T06:57:31;14.90;99.90
21559;DHT22;10940;48.890;8.240;2023-05-10T06:59:58;14.90;99.90
21559;DHT22;10940;48.890;8.240;2023-05-10T07:02:24;15.00;99.90
21559;DHT22;10940;48.890;8.240;2023-05-10T07:04:50;15.10;99.90
21559;DHT22;10940;48.890;8.240;2023-05-10T07:07:17;15.10;99.90
21559;DHT22;10940;48.890;8.240;2023-05-10T07:09:42;15.20;99.90
21559;DHT22;10940;48.890;8.240;2023-05-10T07:12:08;15.30;99.90
21559;DHT22;10940;48.890;8.240;2023-05-10T07:14:34;15.40;99.90
21559;DHT22;10940;48.890;8.240;2023-05-10T07:16:59;15.40;99.90
21559;DHT22;10940;48.890;8.240;2023-05-10T07:19:25;15.50;99.90
21559;DHT22;10940;48.890;8.240;2023-05-10T07:21:50;15.40;99.90
21559;DHT22;10940;48.890;8.240;2023-05-10T07:24:16;15.40;99.90
21559;DHT22;10940;48.890;8.240;2023-05-10T07:26:42;15.30;99.90
21559;DHT22;10940;48.890;8.240;2023-05-10T07:29:07;15.30;99.90
21559;DHT22;10940;48.890;8.240;2023-05-10T07:31:33;15.30;99.90
21559;DHT22;10940;48.890;8.240;2023-05-10T07:33:58;15.30;99.90
21559;DHT22;10940;48.890;8.240;2023-05-10T07:36:24;15.30;99.90
21559;DHT22;10940;48.890;8.240;2023-05-10T07:38:49;15.30;99.90
21559;DHT22;10940;48.890;8.240;2023-05-10T07:41:15;15.40;99.90
21559;DHT22;10940;48.890;8.240;2023-05-10T07:43:41;15.40;99.90
21559;DHT22;10940;48.890;8.240;2023-05-10T07:46:06;15.40;99.90
21559;DHT22;10940;48.890;8.240;2023-05-10T07:48:32;15.50;99.90
21559;DHT22;10940;48.890;8.240;2023-05-10T07:50:58;15.50;99.90
21559;DHT22;10940;48.890;8.240;2023-05-10T07:53:25;15.50;99.90
21559;DHT22;10940;48.890;8.240;2023-05-10T07:55:52;15.40;99.90
21559;DHT22;10940;48.890;8.240;2023-05-10T07:58:19;15.50;99.90
21559;DHT22;10940;48.890;8.240;2023-05-10T08:00:45;15.40;99.90
21559;DHT22;10940;48.890;8.240;2023-05-10T08:03:10;15.40;99.90
21559;DHT22;10940;48.890;8.240;2023-05-10T08:05:36;15.40;99.90
21559;DHT22;10940;48.890;8.240;2023-05-10T08:08:01;15.40;99.90
21559;DHT22;10940;48.890;8.240;2023-05-10T08:10:27;15.50;99.90
21559;DHT22;10940;48.890;8.240;2023-05-10T08:12:53;15.50;99.90
21559;DHT22;10940;48.890;8.240;2023-05-10T08:15:18;15.60;99.90
21559;DHT22;10940;48.890;8.240;2023-05-10T08:17:44;15.60;99.90
21559;DHT22;10940;48.890;8.240;2023-05-10T08:20:09;15.70;99.90
21559;DHT22;10940;48.890;8.240;2023-05-10T08:22:37;15.70;99.90
21559;DHT22;10940;48.890;8.240;2023-05-10T08:25:03;15.70;99.90
21559;DHT22;10940;48.890;8.240;2023-05-10T08:27:29;15.60;99.90
21559;DHT22;10940;48.890;8.240;2023-05-10T08:29:54;15.60;99.90
21559;DHT22;10940;48.890;8.240;2023-05-10T08:32:20;15.60;99.90
21559;DHT22;10940;48.890;8.240;2023-05-10T08:34:45;15.60;99.90
21559;DHT22;10940;48.890;8.240;2023-05-10T08:37:11;15.70;99.90
21559;DHT22;10940;48.890;8.240;2023-05-10T08:39:38;15.70;99.90
21559;DHT22;10940;48.890;8.240;2023-05-10T08:42:04;15.70;99.90
21559;DHT22;10940;48.890;8.240;2023-05-10T08:44:35;15.80;99.90
21559;DHT22;10940;48.890;8.240;2023-05-10T08:47:09;15.90;99.90
21559;DHT22;10940;48.890;8.240;2023-05-10T08:49:37;16.00;99.90
21559;DHT22;10940;48.890;8.240;2023-05-10T08:52:04;16.20;99.90
21559;DHT22;10940;48.890;8.240;2023-05-10T08:54:33;16.30;99.90
21559;DHT22;10940;48.890;8.240;2023-05-10T08:56:59;16.30;99.90
21559;DHT22;10940;48.890;8.240;2023-05-10T08:59:24;16.30;99.90
21559;DHT22;10940;48.890;8.240;2023-05-10T09:01:50;16.20;99.90
21559;DHT22;10940;48.890;8.240;2023-05-10T09:04:16;16.20;99.90
21559;DHT22;10940;48.890;8.240;2023-05-10T09:06:42;16.20;99.90
21559;DHT22;10940;48.890;8.240;2023-05-10T09:09:08;16.00;99.90
21559;DHT22;10940;48.890;8.240;2023-05-10T09:11:33;15.80;99.90
21559;DHT22;10940;48.890;8.240;2023-05-10T09:14:00;15.50;99.90
21559;DHT22;10940;48.890;8.240;2023-05-10T09:16:26;15.20;99.90
21559;DHT22;10940;48.890;8.240;2023-05-10T09:18:52;15.10;99.90
21559;DHT22;10940;48.890;8.240;2023-05-10T09:21:19;15.00;99.90
21559;DHT22;10940;48.890;8.240;2023-05-10T09:23:45;15.00;99.90
21559;DHT22;10940;48.890;8.240;2023-05-10T09:26:12;15.00;99.90
21559;DHT22;10940;48.890;8.240;2023-05-10T09:28:54;15.00;99.90
21559;DHT22;10940;48.890;8.240;2023-05-10T09:31:21;15.10;99.90
21559;DHT22;10940;48.890;8.240;2023-05-10T09:33:48;15.30;99.90
21559;DHT22;10940;48.890;8.240;2023-05-10T09:36:15;15.40;99.90
21559;DHT22;10940;48.890;8.240;2023-05-10T09:38:48;15.60;99.90
21559;DHT22;10940;48.890;8.240;2023-05-10T09:41:21;15.70;99.90
21559;DHT22;10940;48.890;8.240;2023-05-10T09:43:47;15.80;99.90
21559;DHT22;10940;48.890;8.240;2023-05-10T09:46:14;16.00;99.90
21559;DHT22;10940;48.890;8.240;2023-05-10T09:48:47;16.10;99.90
21559;DHT22;10940;48.890;8.240;2023-05-10T09:51:34;16.10;99.90
21559;DHT22;10940;48.890;8.240;2023-05-10T09:54:10;16.20;99.90
21559;DHT22;10940;48.890;8.240;2023-05-10T09:56:37;16.10;99.90
21559;DHT22;10940;48.890;8.240;2023-05-10T09:59:06;16.20;99.90
21559;DHT22;10940;48.890;8.240;2023-05-10T10:01:32;16.20;99.90
21559;DHT22;10940;48.890;8.240;2023-05-10T10:03:58;16.20;99.90
21559;DHT22;10940;48.890;8.240;2023-05-10T10:06:24;16.20;99.90
21559;DHT22;10940;48.890;8.240;2023-05-10T10:08:51;16.10;99.90
21559;DHT22;10940;48.890;8.240;2023-05-10T10:11:17;16.00;99.90
21559;DHT22;10940;48.890;8.240;2023-05-10T10:13:43;16.00;99.90
21559;DHT22;10940;48.890;8.240;2023-05-10T10:16:09;15.90;99.90
21559;DHT22;10940;48.890;8.240;2023-05-10T10:18:36;15.90;99.90
21559;DHT22;10940;48.890;8.240;2023-05-10T10:21:08;16.10;99.90
21559;DHT22;10940;48.890;8.240;2023-05-10T10:23:35;16.20;99.90
21559;DHT22;10940;48.890;8.240;2023-05-10T10:26:02;16.20;99.90
21559;DHT22;10940;48.890;8.240;2023-05-10T10:31:48;16.00;99.90
21559;DHT22;10940;48.890;8.240;2023-05-10T10:34:26;15.80;99.90
21559;DHT22;10940;48.890;8.240;2023-05-10T10:36:56;15.70;99.90
21559;DHT22;10940;48.890;8.240;2023-05-10T10:39:22;15.80;99.90
21559;DHT22;10940;48.890;8.240;2023-05-10T10:41:55;15.90;99.90
21559;DHT22;10940;48.890;8.240;2023-05-10T10:44:26;15.90;99.90
21559;DHT22;10940;48.890;8.240;2023-05-10T10:47:02;16.00;99.90
21559;DHT22;10940;48.890;8.240;2023-05-10T10:49:31;16.00;99.90
21559;DHT22;10940;48.890;8.240;2023-05-10T10:52:21;16.20;99.90
21559;DHT22;10940;48.890;8.240;2023-05-10T10:54:52;16.20;99.90
21559;DHT22;10940;48.890;8.240;2023-05-10T10:57:19;16.30;99.90
21559;DHT22;10940;48.890;8.240;2023-05-10T10:59:45;16.40;99.90
21559;DHT22;10940;48.890;8.240;2023-05-10T11:02:34;16.40;99.90
21559;DHT22;10940;48.890;8.240;2023-05-10T11:05:21;16.50;99.90
21559;DHT22;10940;48.890;8.240;2023-05-10T11:07:57;16.60;99.90
21559;DHT22;10940;48.890;8.240;2023-05-10T11:10:24;16.60;99.90
21559;DHT22;10940;48.890;8.240;2023-05-10T11:13:01;16.70;99.90
21559;DHT22;10940;48.890;8.240;2023-05-10T11:15:34;16.80;99.90
21559;DHT22;10940;48.890;8.240;2023-05-10T11:18:17;16.80;99.90
21559;DHT22;10940;48.890;8.240;2023-05-10T11:20:43;16.70;99.90
21559;DHT22;10940;48.890;8.240;2023-05-10T11:23:13;16.60;99.90
21559;DHT22;10940;48.890;8.240;2023-05-10T11:25:44;16.60;99.90
21559;DHT22;10940;48.890;8.240;2023-05-10T11:28:11;16.60;99.90
21559;DHT22;10940;48.890;8.240;2023-05-10T11:30:41;16.70;99.90
21559;DHT22;10940;48.890;8.240;2023-05-10T11:33:09;16.80;99.90
21559;DHT22;10940;48.890;8.240;2023-05-10T11:35:38;16.80;99.90
21559;DHT22;10940;48.890;8.240;2023-05-10T11:38:08;16.70;99.90
21559;DHT22;10940;48.890;8.240;2023-05-10T11:40:34;16.80;99.90
21559;DHT22;10940;48.890;8.240;2023-05-10T11:43:00;16.90;99.90
21559;DHT22;10940;48.890;8.240;2023-05-10T11:45:27;17.10;99.90
21559;DHT22;10940;48.890;8.240;2023-05-10T11:47:54;17.20;99.90
21559;DHT22;10940;48.890;8.240;2023-05-10T11:50:20;17.40;99.90
21559;DHT22;10940;48.890;8.240;2023-05-10T11:52:50;17.50;99.90
21559;DHT22;10940;48.890;8.240;2023-05-10T11:55:16;17.80;99.90
21559;DHT22;10940;48.890;8.240;2023-05-10T11:57:42;17.90;99.90
21559;DHT22;10940;48.890;8.240;2023-05-10T12:00:10;18.10;99.90
21559;DHT22;10940;48.890;8.240;2023-05-10T12:02:36;18.10;99.90
21559;DHT22;10940;48.890;8.240;2023-05-10T12:05:03;18.10;99.90
21559;DHT22;10940;48.890;8.240;2023-05-10T12:07:29;18.00;99.90
21559;DHT22;10940;48.890;8.240;2023-05-10T12:10:09;18.00;99.90
21559;DHT22;10940;48.890;8.240;2023-05-10T12:12:37;18.00;99.90
21559;DHT22;10940;48.890;8.240;2023-05-10T12:15:03;18.10;99.90
21559;DHT22;10940;48.890;8.240;2023-05-10T12:17:29;18.20;99.90
21559;DHT22;10940;48.890;8.240;2023-05-10T12:20:12;18.30;99.90
21559;DHT22;10940;48.890;8.240;2023-05-10T12:22:38;18.40;99.90
21559;DHT22;10940;48.890;8.240;2023-05-10T12:25:04;18.50;99.90
21559;DHT22;10940;48.890;8.240;2023-05-10T12:27:34;18.50;99.90
21559;DHT22;10940;48.890;8.240;2023-05-10T12:30:00;18.30;99.90
21559;DHT22;10940;48.890;8.240;2023-05-10T12:32:39;18.20;99.90
21559;DHT22;10940;48.890;8.240;2023-05-10T12:35:06;18.20;99.90
21559;DHT22;10940;48.890;8.240;2023-05-10T12:37:32;18.10;99.90
21559;DHT22;10940;48.890;8.240;2023-05-10T12:40:01;18.10;99.90
21559;DHT22;10940;48.890;8.240;2023-05-10T12:42:27;18.00;99.90
21559;DHT22;10940;48.890;8.240;2023-05-10T12:44:56;18.00;99.90
21559;DHT22;10940;48.890;8.240;2023-05-10T12:47:22;18.10;99.90
21559;DHT22;10940;48.890;8.240;2023-05-10T12:49:48;18.30;99.90
21559;DHT22;10940;48.890;8.240;2023-05-10T12:52:13;18.40;99.90
21559;DHT22;10940;48.890;8.240;2023-05-10T12:54:39;18.40;99.90
21559;DHT22;10940;48.890;8.240;2023-05-10T12:57:04;18.30;99.90
21559;DHT22;10940;48.890;8.240;2023-05-10T12:59:30;18.20;99.90
21559;DHT22;10940;48.890;8.240;2023-05-10T13:01:57;18.10;99.90
21559;DHT22;10940;48.890;8.240;2023-05-10T13:04:23;18.10;99.90
21559;DHT22;10940;48.890;8.240;2023-05-10T13:06:48;18.00;99.90
21559;DHT22;10940;48.890;8.240;2023-05-10T13:09:14;18.00;99.90
21559;DHT22;10940;48.890;8.240;2023-05-10T13:11:40;18.10;99.90
21559;DHT22;10940;48.890;8.240;2023-05-10T13:14:06;18.20;99.90
21559;DHT22;10940;48.890;8.240;2023-05-10T13:16:32;18.20;99.90
21559;DHT22;10940;48.890;8.240;2023-05-10T13:18:58;18.30;99.90
21559;DHT22;10940;48.890;8.240;2023-05-10T13:21:24;18.30;99.90
21559;DHT22;10940;48.890;8.240;2023-05-10T13:23:50;18.40;99.90
21559;DHT22;10940;48.890;8.240;2023-05-10T13:26:16;18.40;99.90
21559;DHT22;10940;48.890;8.240;2023-05-10T13:28:43;18.60;99.90
21559;DHT22;10940;48.890;8.240;2023-05-10T13:31:08;18.70;99.90
21559;DHT22;10940;48.890;8.240;2023-05-10T13:33:34;18.90;99.90
21559;DHT22;10940;48.890;8.240;2023-05-10T13:36:00;19.20;99.90
21559;DHT22;10940;48.890;8.240;2023-05-10T13:38:25;19.30;99.90
21559;DHT22;10940;48.890;8.240;2023-05-10T13:40:51;19.40;99.90
21559;DHT22;10940;48.890;8.240;2023-05-10T13:43:18;19.20;99.90
21559;DHT22;10940;48.890;8.240;2023-05-10T13:45:44;19.10;99.90
21559;DHT22;10940;48.890;8.240;2023-05-10T13:48:09;18.80;99.90
21559;DHT22;10940;48.890;8.240;2023-05-10T13:50:35;18.60;99.90
21559;DHT22;10940;48.890;8.240;2023-05-10T13:53:01;18.40;99.90
21559;DHT22;10940;48.890;8.240;2023-05-10T13:55:26;18.20;99.90
21559;DHT22;10940;48.890;8.240;2023-05-10T13:57:52;18.10;99.90
21559;DHT22;10940;48.890;8.240;2023-05-10T14:00:18;18.00;99.90
21559;DHT22;10940;48.890;8.240;2023-05-10T14:02:43;17.90;99.90
21559;DHT22;10940;48.890;8.240;2023-05-10T14:05:09;17.70;99.90
21559;DHT22;10940;48.890;8.240;2023-05-10T14:07:34;17.60;99.90
21559;DHT22;10940;48.890;8.240;2023-05-10T14:10:00;17.70;99.90
21559;DHT22;10940;48.890;8.240;2023-05-10T14:12:26;17.80;99.90
21559;DHT22;10940;48.890;8.240;2023-05-10T14:14:52;18.10;99.90
21559;DHT22;10940;48.890;8.240;2023-05-10T14:17:18;18.30;99.90
21559;DHT22;10940;48.890;8.240;2023-05-10T14:19:43;18.50;99.90
21559;DHT22;10940;48.890;8.240;2023-05-10T14:22:09;18.70;99.90
21559;DHT22;10940;48.890;8.240;2023-05-10T14:24:35;18.90;99.90
21559;DHT22;10940;48.890;8.240;2023-05-10T14:27:00;19.10;99.90
21559;DHT22;10940;48.890;8.240;2023-05-10T14:29:26;19.30;99.90
21559;DHT22;10940;48.890;8.240;2023-05-10T14:31:52;19.40;99.90
21559;DHT22;10940;48.890;8.240;2023-05-10T14:34:17;19.40;99.90
21559;DHT22;10940;48.890;8.240;2023-05-10T14:36:43;19.40;99.90
21559;DHT22;10940;48.890;8.240;2023-05-10T14:39:09;19.40;99.90
21559;DHT22;10940;48.890;8.240;2023-05-10T14:41:35;19.40;99.90
21559;DHT22;10940;48.890;8.240;2023-05-10T14:44:01;19.40;99.90
21559;DHT22;10940;48.890;8.240;2023-05-10T14:46:28;19.30;99.90
21559;DHT22;10940;48.890;8.240;2023-05-10T14:48:55;19.20;99.90
21559;DHT22;10940;48.890;8.240;2023-05-10T14:51:20;19.20;99.90
21559;DHT22;10940;48.890;8.240;2023-05-10T14:53:50;19.10;99.90
21559;DHT22;10940;48.890;8.240;2023-05-10T14:56:16;18.80;99.90
21559;DHT22;10940;48.890;8.240;2023-05-10T14:58:41;18.80;99.90
21559;DHT22;10940;48.890;8.240;2023-05-10T15:01:07;18.70;99.90
21559;DHT22;10940;48.890;8.240;2023-05-10T15:03:32;18.70;99.90
21559;DHT22;10940;48.890;8.240;2023-05-10T15:05:58;18.70;99.90
21559;DHT22;10940;48.890;8.240;2023-05-10T15:08:24;18.80;99.90
21559;DHT22;10940;48.890;8.240;2023-05-10T15:10:52;18.80;99.90
21559;DHT22;10940;48.890;8.240;2023-05-10T15:13:17;18.70;99.90
21559;DHT22;10940;48.890;8.240;2023-05-10T15:15:43;18.60;99.90
21559;DHT22;10940;48.890;8.240;2023-05-10T15:18:12;18.40;99.90
21559;DHT22;10940;48.890;8.240;2023-05-10T15:20:37;18.10;99.90
21559;DHT22;10940;48.890;8.240;2023-05-10T15:23:03;17.90;99.90
21559;DHT22;10940;48.890;8.240;2023-05-10T15:25:28;17.60;99.90
21559;DHT22;10940;48.890;8.240;2023-05-10T15:27:54;17.40;99.90
21559;DHT22;10940;48.890;8.240;2023-05-10T15:30:20;17.20;99.90
21559;DHT22;10940;48.890;8.240;2023-05-10T15:32:46;17.10;99.90
21559;DHT22;10940;48.890;8.240;2023-05-10T15:35:12;16.90;99.90
21559;DHT22;10940;48.890;8.240;2023-05-10T15:37:39;16.80;99.90
21559;DHT22;10940;48.890;8.240;2023-05-10T15:40:05;16.80;99.90
21559;DHT22;10940;48.890;8.240;2023-05-10T15:42:31;16.80;99.90
21559;DHT22;10940;48.890;8.240;2023-05-10T15:44:57;16.90;99.90